sensor_id;sensor_type;location;lat;lon;timestamp;P1;durP1;ratioP1;P2;durP2;ratioP2
35961;SDS011;22044;48.298;10.008;2023-06-04T00:01:48;14.67;;;8.27;;
35961;SDS011;22044;48.298;10.008;2023-06-04T00:04:34;11.80;;;8.20;;
35961;SDS011;22044;48.298;10.008;2023-06-04T00:07:19;14.17;;;8.70;;
35961;SDS011;22044;48.298;10.008;2023-06-04T00:10:05;13.67;;;9.17;;
35961;SDS011;22044;48.298;10.008;2023-06-04T00:12:51;12.93;;;8.50;;
35961;SDS011;22044;48.298;10.008;2023-06-04T00:15:37;14.17;;;8.67;;
35961;SDS011;22044;48.298;10.008;2023-06-04T00:18:24;11.37;;;8.10;;
35961;SDS011;22044;48.298;10.008;2023-06-04T00:21:09;8.83;;;7.50;;
35961;SDS011;22044;48.298;10.008;2023-06-04T00:23:55;9.27;;;7.93;;
35961;SDS011;22044;48.298;10.008;2023-06-04T00:26:41;9.10;;;7.20;;
35961;SDS011;22044;48.298;10.008;2023-06-04T00:29:26;11.70;;;7.17;;
35961;SDS011;22044;48.298;10.008;2023-06-04T00:32:12;13.77;;;7.73;;
35961;SDS011;22044;48.298;10.008;2023-06-04T00:34:59;11.83;;;7.23;;
35961;SDS011;22044;48.298;10.008;2023-06-04T00:37:45;9.40;;;6.80;;
35961;SDS011;22044;48.298;10.008;2023-06-04T00:40:31;9.37;;;6.47;;
35961;SDS011;22044;48.298;10.008;2023-06-04T00:43:19;9.67;;;7.37;;
35961;SDS011;22044;48.298;10.008;2023-06-04T00:46:05;7.60;;;6.80;;
35961;SDS011;22044;48.298;10.008;2023-06-04T00:48:52;10.67;;;6.63;;
35961;SDS011;22044;48.298;10.008;2023-06-04T00:51:39;9.10;;;6.90;;
35961;SDS011;22044;48.298;10.008;2023-06-04T00:54:25;12.13;;;6.60;;
35961;SDS011;22044;48.298;10.008;2023-06-04T00:57:12;9.27;;;6.73;;
35961;SDS011;22044;48.298;10.008;2023-06-04T00:59:58;8.47;;;6.60;;
35961;SDS011;22044;48.298;10.008;2023-06-04T01:02:44;8.03;;;6.37;;
35961;SDS011;22044;48.298;10.008;2023-06-04T01:05:36;7.80;;;6.53;;
35961;SDS011;22044;48.298;10.008;2023-06-04T01:08:27;8.50;;;6.37;;
35961;SDS011;22044;48.298;10.008;2023-06-04T01:11:13;7.23;;;6.17;;
35961;SDS011;22044;48.298;10.008;2023-06-04T01:13:59;9.63;;;6.10;;
35961;SDS011;22044;48.298;10.008;2023-06-04T01:16:49;12.63;;;6.87;;
35961;SDS011;22044;48.298;10.008;2023-06-04T01:19:57;9.03;;;6.70;;
35961;SDS011;22044;48.298;10.008;2023-06-04T01:22:53;6.93;;;5.90;;
35961;SDS011;22044;48.298;10.008;2023-06-04T01:25:51;9.00;;;5.67;;
35961;SDS011;22044;48.298;10.008;2023-06-04T01:28:41;7.77;;;5.77;;
35961;SDS011;22044;48.298;10.008;2023-06-04T01:31:28;8.00;;;5.70;;
35961;SDS011;22044;48.298;10.008;2023-06-04T01:34:16;6.87;;;5.43;;
35961;SDS011;22044;48.298;10.008;2023-06-04T01:37:02;8.47;;;5.70;;
35961;SDS011;22044;48.298;10.008;2023-06-04T01:39:48;6.87;;;5.73;;
35961;SDS011;22044;48.298;10.008;2023-06-04T01:42:35;6.87;;;5.37;;
35961;SDS011;22044;48.298;10.008;2023-06-04T01:45:21;9.33;;;5.83;;
35961;SDS011;22044;48.298;10.008;2023-06-04T01:48:08;9.77;;;5.17;;
35961;SDS011;22044;48.298;10.008;2023-06-04T01:50:53;7.13;;;5.20;;
35961;SDS011;22044;48.298;10.008;2023-06-04T01:53:39;6.20;;;5.23;;
35961;SDS011;22044;48.298;10.008;2023-06-04T01:56:25;5.93;;;4.70;;
35961;SDS011;22044;48.298;10.008;2023-06-04T01:59:12;6.80;;;5.50;;
35961;SDS011;22044;48.298;10.008;2023-06-04T02:02:00;6.67;;;5.30;;
35961;SDS011;22044;48.298;10.008;2023-06-04T02:04:47;6.77;;;4.87;;
35961;SDS011;22044;48.298;10.008;2023-06-04T02:07:35;6.70;;;4.70;;
35961;SDS011;22044;48.298;10.008;2023-06-04T02:10:22;5.20;;;4.37;;
35961;SDS011;22044;48.298;10.008;2023-06-04T02:13:08;5.83;;;4.47;;
35961;SDS011;22044;48.298;10.008;2023-06-04T02:15:56;7.77;;;4.33;;
35961;SDS011;22044;48.298;10.008;2023-06-04T02:18:42;9.60;;;4.30;;
35961;SDS011;22044;48.298;10.008;2023-06-04T02:21:27;6.83;;;4.77;;
35961;SDS011;22044;48.298;10.008;2023-06-04T02:24:13;5.97;;;4.30;;
35961;SDS011;22044;48.298;10.008;2023-06-04T02:26:59;9.23;;;4.40;;
35961;SDS011;22044;48.298;10.008;2023-06-04T02:29:44;7.97;;;4.80;;
35961;SDS011;22044;48.298;10.008;2023-06-04T02:32:32;6.27;;;4.63;;
35961;SDS011;22044;48.298;10.008;2023-06-04T02:35:19;6.30;;;4.43;;
35961;SDS011;22044;48.298;10.008;2023-06-04T02:38:06;5.37;;;3.90;;
35961;SDS011;22044;48.298;10.008;2023-06-04T02:40:53;6.83;;;4.53;;
35961;SDS011;22044;48.298;10.008;2023-06-04T02:43:39;10.87;;;4.47;;
35961;SDS011;22044;48.298;10.008;2023-06-04T02:46:24;5.17;;;3.30;;
35961;SDS011;22044;48.298;10.008;2023-06-04T02:49:11;5.97;;;3.77;;
35961;SDS011;22044;48.298;10.008;2023-06-04T02:51:58;6.30;;;4.03;;
35961;SDS011;22044;48.298;10.008;2023-06-04T02:54:44;5.53;;;3.93;;
35961;SDS011;22044;48.298;10.008;2023-06-04T02:57:29;7.17;;;4.33;;
35961;SDS011;22044;48.298;10.008;2023-06-04T03:00:15;4.80;;;3.90;;
35961;SDS011;22044;48.298;10.008;2023-06-04T03:03:01;4.97;;;3.40;;
35961;SDS011;22044;48.298;10.008;2023-06-04T03:05:48;4.20;;;3.53;;
35961;SDS011;22044;48.298;10.008;2023-06-04T03:08:34;6.50;;;3.70;;
35961;SDS011;22044;48.298;10.008;2023-06-04T03:11:19;4.83;;;3.73;;
35961;SDS011;22044;48.298;10.008;2023-06-04T03:14:05;5.10;;;3.60;;
35961;SDS011;22044;48.298;10.008;2023-06-04T03:16:51;4.67;;;3.70;;
35961;SDS011;22044;48.298;10.008;2023-06-04T03:19:37;4.10;;;3.37;;
35961;SDS011;22044;48.298;10.008;2023-06-04T03:22:25;4.43;;;3.80;;
35961;SDS011;22044;48.298;10.008;2023-06-04T03:25:12;6.67;;;3.57;;
35961;SDS011;22044;48.298;10.008;2023-06-04T03:27:57;5.17;;;3.30;;
35961;SDS011;22044;48.298;10.008;2023-06-04T03:30:43;3.90;;;3.50;;
35961;SDS011;22044;48.298;10.008;2023-06-04T03:33:28;4.73;;;3.27;;
35961;SDS011;22044;48.298;10.008;2023-06-04T03:36:14;4.80;;;3.40;;
35961;SDS011;22044;48.298;10.008;2023-06-04T03:39:02;4.10;;;3.53;;
35961;SDS011;22044;48.298;10.008;2023-06-04T03:41:48;4.03;;;3.03;;
35961;SDS011;22044;48.298;10.008;2023-06-04T03:44:36;5.60;;;3.10;;
35961;SDS011;22044;48.298;10.008;2023-06-04T03:47:22;4.47;;;3.40;;
35961;SDS011;22044;48.298;10.008;2023-06-04T03:50:08;6.93;;;3.43;;
35961;SDS011;22044;48.298;10.008;2023-06-04T03:52:55;6.40;;;3.63;;
35961;SDS011;22044;48.298;10.008;2023-06-04T03:55:43;7.70;;;3.67;;
35961;SDS011;22044;48.298;10.008;2023-06-04T03:58:28;5.93;;;3.23;;
35961;SDS011;22044;48.298;10.008;2023-06-04T04:01:15;5.93;;;3.90;;
35961;SDS011;22044;48.298;10.008;2023-06-04T04:04:02;4.27;;;3.57;;
35961;SDS011;22044;48.298;10.008;2023-06-04T04:06:50;6.10;;;3.50;;
35961;SDS011;22044;48.298;10.008;2023-06-04T04:09:35;4.37;;;3.23;;
35961;SDS011;22044;48.298;10.008;2023-06-04T04:12:24;5.17;;;2.93;;
35961;SDS011;22044;48.298;10.008;2023-06-04T04:15:10;6.20;;;3.17;;
35961;SDS011;22044;48.298;10.008;2023-06-04T04:17:56;5.77;;;3.20;;
35961;SDS011;22044;48.298;10.008;2023-06-04T04:20:42;7.13;;;3.57;;
35961;SDS011;22044;48.298;10.008;2023-06-04T04:23:29;5.20;;;2.80;;
35961;SDS011;22044;48.298;10.008;2023-06-04T04:26:16;3.40;;;2.83;;
35961;SDS011;22044;48.298;10.008;2023-06-04T04:29:06;5.43;;;3.27;;
35961;SDS011;22044;48.298;10.008;2023-06-04T04:31:53;5.27;;;2.87;;
35961;SDS011;22044;48.298;10.008;2023-06-04T04:34:50;3.97;;;2.70;;
35961;SDS011;22044;48.298;10.008;2023-06-04T04:37:40;4.13;;;3.20;;
35961;SDS011;22044;48.298;10.008;2023-06-04T04:40:26;5.53;;;3.10;;
35961;SDS011;22044;48.298;10.008;2023-06-04T04:43:14;7.07;;;3.30;;
35961;SDS011;22044;48.298;10.008;2023-06-04T04:46:01;5.93;;;3.53;;
35961;SDS011;22044;48.298;10.008;2023-06-04T04:48:47;3.53;;;3.00;;
35961;SDS011;22044;48.298;10.008;2023-06-04T04:51:33;5.40;;;3.10;;
35961;SDS011;22044;48.298;10.008;2023-06-04T04:54:20;4.00;;;2.90;;
35961;SDS011;22044;48.298;10.008;2023-06-04T04:57:05;4.87;;;2.97;;
35961;SDS011;22044;48.298;10.008;2023-06-04T04:59:53;5.03;;;2.80;;
35961;SDS011;22044;48.298;10.008;2023-06-04T05:02:40;6.17;;;2.80;;
35961;SDS011;22044;48.298;10.008;2023-06-04T05:05:27;5.53;;;3.10;;
35961;SDS011;22044;48.298;10.008;2023-06-04T05:08:14;5.27;;;2.60;;
35961;SDS011;22044;48.298;10.008;2023-06-04T05:11:01;3.97;;;2.90;;
35961;SDS011;22044;48.298;10.008;2023-06-04T05:13:47;5.27;;;2.80;;
35961;SDS011;22044;48.298;10.008;2023-06-04T05:16:33;4.27;;;2.70;;
35961;SDS011;22044;48.298;10.008;2023-06-04T05:19:21;4.20;;;2.73;;
35961;SDS011;22044;48.298;10.008;2023-06-04T05:22:08;4.90;;;3.23;;
35961;SDS011;22044;48.298;10.008;2023-06-04T05:24:54;3.80;;;2.63;;
35961;SDS011;22044;48.298;10.008;2023-06-04T05:27:43;2.73;;;2.37;;
35961;SDS011;22044;48.298;10.008;2023-06-04T05:30:30;3.57;;;2.73;;
35961;SDS011;22044;48.298;10.008;2023-06-04T05:33:17;4.07;;;3.00;;
35961;SDS011;22044;48.298;10.008;2023-06-04T05:36:10;5.47;;;2.67;;
35961;SDS011;22044;48.298;10.008;2023-06-04T05:39:02;4.03;;;2.30;;
35961;SDS011;22044;48.298;10.008;2023-06-04T05:41:58;3.67;;;2.57;;
35961;SDS011;22044;48.298;10.008;2023-06-04T05:44:44;2.70;;;2.30;;
35961;SDS011;22044;48.298;10.008;2023-06-04T05:47:32;6.30;;;2.50;;
35961;SDS011;22044;48.298;10.008;2023-06-04T05:50:18;4.87;;;2.60;;
35961;SDS011;22044;48.298;10.008;2023-06-04T05:53:05;3.07;;;2.30;;
35961;SDS011;22044;48.298;10.008;2023-06-04T05:55:51;5.53;;;2.93;;
35961;SDS011;22044;48.298;10.008;2023-06-04T05:58:37;4.70;;;2.50;;
35961;SDS011;22044;48.298;10.008;2023-06-04T06:01:23;4.40;;;2.50;;
35961;SDS011;22044;48.298;10.008;2023-06-04T06:04:10;5.37;;;2.60;;
35961;SDS011;22044;48.298;10.008;2023-06-04T06:06:56;3.03;;;2.67;;
35961;SDS011;22044;48.298;10.008;2023-06-04T06:09:43;6.70;;;2.90;;
35961;SDS011;22044;48.298;10.008;2023-06-04T06:12:29;6.53;;;3.00;;
35961;SDS011;22044;48.298;10.008;2023-06-04T06:15:15;4.77;;;2.70;;
35961;SDS011;22044;48.298;10.008;2023-06-04T06:18:03;3.60;;;2.93;;
35961;SDS011;22044;48.298;10.008;2023-06-04T06:20:49;4.47;;;2.60;;
35961;SDS011;22044;48.298;10.008;2023-06-04T06:23:35;4.90;;;2.53;;
35961;SDS011;22044;48.298;10.008;2023-06-04T06:26:22;5.77;;;3.20;;
35961;SDS011;22044;48.298;10.008;2023-06-04T06:29:12;4.50;;;3.17;;
35961;SDS011;22044;48.298;10.008;2023-06-04T06:31:58;6.70;;;3.20;;
35961;SDS011;22044;48.298;10.008;2023-06-04T06:34:44;4.93;;;3.10;;
35961;SDS011;22044;48.298;10.008;2023-06-04T06:37:30;3.80;;;3.30;;
35961;SDS011;22044;48.298;10.008;2023-06-04T06:40:15;6.90;;;3.30;;
35961;SDS011;22044;48.298;10.008;2023-06-04T06:43:03;7.00;;;3.53;;
35961;SDS011;22044;48.298;10.008;2023-06-04T06:45:48;3.27;;;2.93;;
35961;SDS011;22044;48.298;10.008;2023-06-04T06:48:34;4.13;;;3.40;;
35961;SDS011;22044;48.298;10.008;2023-06-04T06:51:20;4.40;;;2.87;;
35961;SDS011;22044;48.298;10.008;2023-06-04T06:54:08;9.57;;;3.37;;
35961;SDS011;22044;48.298;10.008;2023-06-04T06:56:53;5.83;;;3.07;;
35961;SDS011;22044;48.298;10.008;2023-06-04T06:59:40;4.10;;;3.40;;
35961;SDS011;22044;48.298;10.008;2023-06-04T07:02:26;5.73;;;3.13;;
35961;SDS011;22044;48.298;10.008;2023-06-04T07:05:13;3.50;;;2.97;;
35961;SDS011;22044;48.298;10.008;2023-06-04T07:08:00;3.33;;;2.80;;
35961;SDS011;22044;48.298;10.008;2023-06-04T07:10:46;4.17;;;3.10;;
35961;SDS011;22044;48.298;10.008;2023-06-04T07:13:32;7.60;;;3.43;;
35961;SDS011;22044;48.298;10.008;2023-06-04T07:16:20;6.00;;;3.13;;
35961;SDS011;22044;48.298;10.008;2023-06-04T07:19:05;3.20;;;2.80;;
35961;SDS011;22044;48.298;10.008;2023-06-04T07:21:53;5.37;;;3.37;;
35961;SDS011;22044;48.298;10.008;2023-06-04T07:24:39;3.73;;;3.00;;
35961;SDS011;22044;48.298;10.008;2023-06-04T07:27:25;4.77;;;3.03;;
35961;SDS011;22044;48.298;10.008;2023-06-04T07:30:13;5.97;;;2.63;;
35961;SDS011;22044;48.298;10.008;2023-06-04T07:33:00;3.60;;;3.30;;
35961;SDS011;22044;48.298;10.008;2023-06-04T07:35:46;5.60;;;3.03;;
35961;SDS011;22044;48.298;10.008;2023-06-04T07:38:31;4.77;;;3.23;;
35961;SDS011;22044;48.298;10.008;2023-06-04T07:41:17;3.80;;;2.80;;
35961;SDS011;22044;48.298;10.008;2023-06-04T07:44:03;4.03;;;3.00;;
35961;SDS011;22044;48.298;10.008;2023-06-04T07:46:49;10.47;;;3.20;;
35961;SDS011;22044;48.298;10.008;2023-06-04T07:49:36;3.17;;;2.63;;
35961;SDS011;22044;48.298;10.008;2023-06-04T07:52:22;7.63;;;3.33;;
35961;SDS011;22044;48.298;10.008;2023-06-04T07:55:07;4.87;;;3.20;;
35961;SDS011;22044;48.298;10.008;2023-06-04T07:57:53;5.10;;;3.10;;
35961;SDS011;22044;48.298;10.008;2023-06-04T08:00:39;6.40;;;3.07;;
35961;SDS011;22044;48.298;10.008;2023-06-04T08:03:25;3.70;;;3.03;;
35961;SDS011;22044;48.298;10.008;2023-06-04T08:06:12;7.73;;;3.03;;
35961;SDS011;22044;48.298;10.008;2023-06-04T08:08:58;5.37;;;3.20;;
35961;SDS011;22044;48.298;10.008;2023-06-04T08:11:43;3.90;;;2.90;;
35961;SDS011;22044;48.298;10.008;2023-06-04T08:14:29;3.80;;;2.80;;
35961;SDS011;22044;48.298;10.008;2023-06-04T08:17:15;5.67;;;3.10;;
35961;SDS011;22044;48.298;10.008;2023-06-04T08:20:01;6.33;;;2.90;;
35961;SDS011;22044;48.298;10.008;2023-06-04T08:22:51;4.80;;;3.05;;
35961;SDS011;22044;48.298;10.008;2023-06-04T08:25:37;6.30;;;3.37;;
35961;SDS011;22044;48.298;10.008;2023-06-04T08:28:22;3.92;;;3.20;;
35961;SDS011;22044;48.298;10.008;2023-06-04T08:31:08;6.53;;;3.23;;
35961;SDS011;22044;48.298;10.008;2023-06-04T08:33:53;4.05;;;3.15;;
35961;SDS011;22044;48.298;10.008;2023-06-04T08:36:39;5.05;;;2.92;;
35961;SDS011;22044;48.298;10.008;2023-06-04T08:39:27;6.93;;;3.17;;
35961;SDS011;22044;48.298;10.008;2023-06-04T08:42:15;6.57;;;3.08;;
35961;SDS011;22044;48.298;10.008;2023-06-04T08:45:06;4.70;;;3.42;;
35961;SDS011;22044;48.298;10.008;2023-06-04T08:47:56;7.00;;;3.20;;
35961;SDS011;22044;48.298;10.008;2023-06-04T08:50:42;4.85;;;3.25;;
35961;SDS011;22044;48.298;10.008;2023-06-04T08:53:31;8.18;;;3.20;;
35961;SDS011;22044;48.298;10.008;2023-06-04T08:56:18;3.53;;;2.80;;
35961;SDS011;22044;48.298;10.008;2023-06-04T08:59:06;7.40;;;3.20;;
35961;SDS011;22044;48.298;10.008;2023-06-04T09:01:55;4.43;;;3.00;;
35961;SDS011;22044;48.298;10.008;2023-06-04T09:04:42;3.20;;;2.58;;
35961;SDS011;22044;48.298;10.008;2023-06-04T09:07:27;4.30;;;2.80;;
35961;SDS011;22044;48.298;10.008;2023-06-04T09:10:15;4.78;;;3.33;;
35961;SDS011;22044;48.298;10.008;2023-06-04T09:13:05;2.67;;;2.47;;
35961;SDS011;22044;48.298;10.008;2023-06-04T09:15:59;5.35;;;3.35;;
35961;SDS011;22044;48.298;10.008;2023-06-04T09:18:45;4.32;;;3.40;;
35961;SDS011;22044;48.298;10.008;2023-06-04T09:21:31;5.13;;;3.33;;
35961;SDS011;22044;48.298;10.008;2023-06-04T09:24:16;4.45;;;3.28;;
35961;SDS011;22044;48.298;10.008;2023-06-04T09:27:08;5.53;;;2.85;;
35961;SDS011;22044;48.298;10.008;2023-06-04T09:29:56;3.40;;;3.05;;
35961;SDS011;22044;48.298;10.008;2023-06-04T09:32:44;4.55;;;3.28;;
35961;SDS011;22044;48.298;10.008;2023-06-04T09:35:29;6.40;;;3.55;;
35961;SDS011;22044;48.298;10.008;2023-06-04T09:38:14;5.05;;;3.33;;
35961;SDS011;22044;48.298;10.008;2023-06-04T09:41:01;5.25;;;3.60;;
35961;SDS011;22044;48.298;10.008;2023-06-04T09:43:49;6.80;;;3.20;;
35961;SDS011;22044;48.298;10.008;2023-06-04T09:46:36;6.18;;;3.25;;
35961;SDS011;22044;48.298;10.008;2023-06-04T09:49:22;5.78;;;3.22;;
35961;SDS011;22044;48.298;10.008;2023-06-04T09:52:08;3.78;;;3.10;;
35961;SDS011;22044;48.298;10.008;2023-06-04T09:54:54;4.40;;;3.33;;
35961;SDS011;22044;48.298;10.008;2023-06-04T09:57:40;6.80;;;3.42;;
35961;SDS011;22044;48.298;10.008;2023-06-04T10:00:29;5.13;;;3.60;;
35961;SDS011;22044;48.298;10.008;2023-06-04T10:03:16;5.25;;;3.35;;
35961;SDS011;22044;48.298;10.008;2023-06-04T10:06:07;5.82;;;3.60;;
35961;SDS011;22044;48.298;10.008;2023-06-04T10:08:53;4.68;;;3.70;;
35961;SDS011;22044;48.298;10.008;2023-06-04T10:11:44;6.50;;;3.33;;
35961;SDS011;22044;48.298;10.008;2023-06-04T10:14:39;4.78;;;3.40;;
35961;SDS011;22044;48.298;10.008;2023-06-04T10:17:29;7.15;;;3.72;;
35961;SDS011;22044;48.298;10.008;2023-06-04T10:20:18;6.25;;;3.85;;
35961;SDS011;22044;48.298;10.008;2023-06-04T10:23:04;5.88;;;3.95;;
35961;SDS011;22044;48.298;10.008;2023-06-04T10:25:51;4.50;;;3.55;;
35961;SDS011;22044;48.298;10.008;2023-06-04T10:28:37;5.55;;;3.50;;
35961;SDS011;22044;48.298;10.008;2023-06-04T10:31:25;6.32;;;3.30;;
35961;SDS011;22044;48.298;10.008;2023-06-04T10:34:11;4.82;;;3.83;;
35961;SDS011;22044;48.298;10.008;2023-06-04T10:36:58;5.45;;;3.50;;
35961;SDS011;22044;48.298;10.008;2023-06-04T10:39:49;5.03;;;4.00;;
35961;SDS011;22044;48.298;10.008;2023-06-04T10:42:37;6.15;;;3.90;;
35961;SDS011;22044;48.298;10.008;2023-06-04T10:45:28;5.70;;;3.78;;
35961;SDS011;22044;48.298;10.008;2023-06-04T10:48:14;5.45;;;3.95;;
35961;SDS011;22044;48.298;10.008;2023-06-04T10:51:00;5.03;;;3.90;;
35961;SDS011;22044;48.298;10.008;2023-06-04T10:53:46;9.95;;;4.57;;
35961;SDS011;22044;48.298;10.008;2023-06-04T10:56:33;6.80;;;4.25;;
35961;SDS011;22044;48.298;10.008;2023-06-04T10:59:20;8.18;;;5.13;;
35961;SDS011;22044;48.298;10.008;2023-06-04T11:02:08;7.45;;;4.35;;
35961;SDS011;22044;48.298;10.008;2023-06-04T11:05:00;4.63;;;3.85;;
35961;SDS011;22044;48.298;10.008;2023-06-04T11:07:51;7.85;;;4.18;;
35961;SDS011;22044;48.298;10.008;2023-06-04T11:10:39;5.78;;;4.30;;
35961;SDS011;22044;48.298;10.008;2023-06-04T11:13:25;5.20;;;4.70;;
35961;SDS011;22044;48.298;10.008;2023-06-04T11:16:14;5.97;;;4.70;;
35961;SDS011;22044;48.298;10.008;2023-06-04T11:19:01;5.25;;;4.75;;
35961;SDS011;22044;48.298;10.008;2023-06-04T11:21:47;7.75;;;4.38;;
35961;SDS011;22044;48.298;10.008;2023-06-04T11:24:32;7.32;;;5.00;;
35961;SDS011;22044;48.298;10.008;2023-06-04T11:27:21;5.97;;;4.57;;
35961;SDS011;22044;48.298;10.008;2023-06-04T11:30:07;5.75;;;4.30;;
35961;SDS011;22044;48.298;10.008;2023-06-04T11:33:02;5.13;;;4.38;;
35961;SDS011;22044;48.298;10.008;2023-06-04T11:35:49;5.43;;;4.43;;
35961;SDS011;22044;48.298;10.008;2023-06-04T11:38:35;7.78;;;4.72;;
35961;SDS011;22044;48.298;10.008;2023-06-04T11:41:20;5.07;;;4.53;;
35961;SDS011;22044;48.298;10.008;2023-06-04T11:44:07;6.07;;;4.75;;
35961;SDS011;22044;48.298;10.008;2023-06-04T11:46:54;5.03;;;4.15;;
35961;SDS011;22044;48.298;10.008;2023-06-04T11:49:40;6.32;;;5.20;;
35961;SDS011;22044;48.298;10.008;2023-06-04T11:52:27;6.18;;;4.80;;
35961;SDS011;22044;48.298;10.008;2023-06-04T11:55:13;5.72;;;4.03;;
35961;SDS011;22044;48.298;10.008;2023-06-04T11:58:01;6.88;;;4.80;;
35961;SDS011;22044;48.298;10.008;2023-06-04T12:00:48;5.10;;;4.55;;
35961;SDS011;22044;48.298;10.008;2023-06-04T12:03:34;7.80;;;4.82;;
35961;SDS011;22044;48.298;10.008;2023-06-04T12:06:22;10.00;;;5.20;;
35961;SDS011;22044;48.298;10.008;2023-06-04T12:09:08;4.65;;;4.25;;
35961;SDS011;22044;48.298;10.008;2023-06-04T12:11:57;6.28;;;5.05;;
35961;SDS011;22044;48.298;10.008;2023-06-04T12:14:43;5.18;;;4.63;;
35961;SDS011;22044;48.298;10.008;2023-06-04T12:17:31;6.07;;;4.75;;
35961;SDS011;22044;48.298;10.008;2023-06-04T12:20:17;9.40;;;5.00;;
35961;SDS011;22044;48.298;10.008;2023-06-04T12:23:03;7.05;;;5.07;;
35961;SDS011;22044;48.298;10.008;2023-06-04T12:25:50;6.45;;;4.55;;
35961;SDS011;22044;48.298;10.008;2023-06-04T12:28:35;8.63;;;4.75;;
35961;SDS011;22044;48.298;10.008;2023-06-04T12:31:21;5.68;;;4.47;;
35961;SDS011;22044;48.298;10.008;2023-06-04T12:34:08;5.15;;;4.40;;
35961;SDS011;22044;48.298;10.008;2023-06-04T12:36:55;6.15;;;4.38;;
35961;SDS011;22044;48.298;10.008;2023-06-04T12:39:41;6.38;;;4.60;;
35961;SDS011;22044;48.298;10.008;2023-06-04T12:42:26;5.07;;;4.30;;
35961;SDS011;22044;48.298;10.008;2023-06-04T12:45:13;5.47;;;4.25;;
35961;SDS011;22044;48.298;10.008;2023-06-04T12:47:59;6.00;;;4.40;;
35961;SDS011;22044;48.298;10.008;2023-06-04T12:50:46;5.10;;;4.18;;
35961;SDS011;22044;48.298;10.008;2023-06-04T12:53:31;5.68;;;5.00;;
35961;SDS011;22044;48.298;10.008;2023-06-04T12:56:17;7.10;;;5.13;;
35961;SDS011;22044;48.298;10.008;2023-06-04T12:59:02;7.38;;;5.00;;
35961;SDS011;22044;48.298;10.008;2023-06-04T13:01:49;6.47;;;4.72;;
35961;SDS011;22044;48.298;10.008;2023-06-04T13:04:34;7.78;;;4.97;;
35961;SDS011;22044;48.298;10.008;2023-06-04T13:07:22;8.40;;;4.80;;
35961;SDS011;22044;48.298;10.008;2023-06-04T13:10:07;6.40;;;4.63;;
35961;SDS011;22044;48.298;10.008;2023-06-04T13:12:53;5.22;;;4.32;;
35961;SDS011;22044;48.298;10.008;2023-06-04T13:15:39;6.75;;;4.70;;
35961;SDS011;22044;48.298;10.008;2023-06-04T13:18:25;7.07;;;4.53;;
35961;SDS011;22044;48.298;10.008;2023-06-04T13:21:11;5.32;;;4.82;;
35961;SDS011;22044;48.298;10.008;2023-06-04T13:24:01;5.55;;;4.82;;
35961;SDS011;22044;48.298;10.008;2023-06-04T13:26:46;6.25;;;5.28;;
35961;SDS011;22044;48.298;10.008;2023-06-04T13:29:32;6.22;;;4.63;;
35961;SDS011;22044;48.298;10.008;2023-06-04T13:32:18;5.90;;;4.75;;
35961;SDS011;22044;48.298;10.008;2023-06-04T13:35:04;5.75;;;5.07;;
35961;SDS011;22044;48.298;10.008;2023-06-04T13:37:51;7.88;;;4.45;;
35961;SDS011;22044;48.298;10.008;2023-06-04T13:40:38;8.57;;;4.80;;
35961;SDS011;22044;48.298;10.008;2023-06-04T13:43:23;5.10;;;4.60;;
35961;SDS011;22044;48.298;10.008;2023-06-04T13:46:09;5.53;;;4.60;;
35961;SDS011;22044;48.298;10.008;2023-06-04T13:48:55;8.35;;;5.10;;
35961;SDS011;22044;48.298;10.008;2023-06-04T13:51:40;6.57;;;5.03;;
35961;SDS011;22044;48.298;10.008;2023-06-04T13:54:26;6.28;;;4.43;;
35961;SDS011;22044;48.298;10.008;2023-06-04T13:57:13;8.63;;;5.00;;
35961;SDS011;22044;48.298;10.008;2023-06-04T13:59:59;5.47;;;4.90;;
35961;SDS011;22044;48.298;10.008;2023-06-04T14:02:47;4.68;;;4.20;;
35961;SDS011;22044;48.298;10.008;2023-06-04T14:05:34;10.90;;;5.25;;
35961;SDS011;22044;48.298;10.008;2023-06-04T14:08:19;5.97;;;4.95;;
35961;SDS011;22044;48.298;10.008;2023-06-04T14:11:05;5.57;;;4.60;;
35961;SDS011;22044;48.298;10.008;2023-06-04T14:13:52;4.90;;;4.40;;
35961;SDS011;22044;48.298;10.008;2023-06-04T14:16:37;6.75;;;4.95;;
35961;SDS011;22044;48.298;10.008;2023-06-04T14:19:24;5.22;;;4.40;;
35961;SDS011;22044;48.298;10.008;2023-06-04T14:22:09;5.38;;;4.78;;
35961;SDS011;22044;48.298;10.008;2023-06-04T14:24:55;4.88;;;4.38;;
35961;SDS011;22044;48.298;10.008;2023-06-04T14:27:41;5.95;;;4.25;;
35961;SDS011;22044;48.298;10.008;2023-06-04T14:30:29;6.90;;;4.50;;
35961;SDS011;22044;48.298;10.008;2023-06-04T14:33:14;8.85;;;5.28;;
35961;SDS011;22044;48.298;10.008;2023-06-04T14:36:00;7.00;;;4.78;;
35961;SDS011;22044;48.298;10.008;2023-06-04T14:38:46;7.13;;;5.30;;
35961;SDS011;22044;48.298;10.008;2023-06-04T14:41:32;5.20;;;4.70;;
35961;SDS011;22044;48.298;10.008;2023-06-04T14:44:17;5.85;;;4.35;;
35961;SDS011;22044;48.298;10.008;2023-06-04T14:47:07;5.45;;;4.57;;
35961;SDS011;22044;48.298;10.008;2023-06-04T14:49:52;6.05;;;4.93;;
35961;SDS011;22044;48.298;10.008;2023-06-04T14:52:38;6.72;;;4.70;;
35961;SDS011;22044;48.298;10.008;2023-06-04T14:55:24;5.45;;;4.95;;
35961;SDS011;22044;48.298;10.008;2023-06-04T14:58:09;5.60;;;5.00;;
35961;SDS011;22044;48.298;10.008;2023-06-04T15:00:56;5.93;;;5.10;;
35961;SDS011;22044;48.298;10.008;2023-06-04T15:03:44;6.10;;;5.03;;
35961;SDS011;22044;48.298;10.008;2023-06-04T15:06:30;7.75;;;5.05;;
35961;SDS011;22044;48.298;10.008;2023-06-04T15:09:16;6.00;;;5.07;;
35961;SDS011;22044;48.298;10.008;2023-06-04T15:12:02;6.63;;;4.88;;
35961;SDS011;22044;48.298;10.008;2023-06-04T15:14:48;6.72;;;4.32;;
35961;SDS011;22044;48.298;10.008;2023-06-04T15:17:33;5.88;;;4.80;;
35961;SDS011;22044;48.298;10.008;2023-06-04T15:20:20;5.53;;;5.03;;
35961;SDS011;22044;48.298;10.008;2023-06-04T15:23:08;8.10;;;5.03;;
35961;SDS011;22044;48.298;10.008;2023-06-04T15:25:54;5.35;;;4.70;;
35961;SDS011;22044;48.298;10.008;2023-06-04T15:28:40;5.45;;;4.55;;
35961;SDS011;22044;48.298;10.008;2023-06-04T15:31:29;5.72;;;5.15;;
35961;SDS011;22044;48.298;10.008;2023-06-04T15:34:15;6.18;;;5.57;;
35961;SDS011;22044;48.298;10.008;2023-06-04T15:37:03;5.10;;;4.60;;
35961;SDS011;22044;48.298;10.008;2023-06-04T15:39:50;6.18;;;5.20;;
35961;SDS011;22044;48.298;10.008;2023-06-04T15:42:35;5.90;;;5.30;;
35961;SDS011;22044;48.298;10.008;2023-06-04T15:45:21;6.43;;;4.82;;
35961;SDS011;22044;48.298;10.008;2023-06-04T15:48:10;6.68;;;4.75;;
35961;SDS011;22044;48.298;10.008;2023-06-04T15:50:57;6.22;;;5.47;;
35961;SDS011;22044;48.298;10.008;2023-06-04T15:53:45;6.15;;;5.25;;
35961;SDS011;22044;48.298;10.008;2023-06-04T15:56:31;6.95;;;5.25;;
35961;SDS011;22044;48.298;10.008;2023-06-04T15:59:16;5.40;;;4.82;;
35961;SDS011;22044;48.298;10.008;2023-06-04T16:02:02;6.65;;;5.35;;
35961;SDS011;22044;48.298;10.008;2023-06-04T16:04:47;5.78;;;4.88;;
35961;SDS011;22044;48.298;10.008;2023-06-04T16:07:33;6.07;;;4.97;;
35961;SDS011;22044;48.298;10.008;2023-06-04T16:10:20;8.07;;;5.18;;
35961;SDS011;22044;48.298;10.008;2023-06-04T16:13:06;6.05;;;4.95;;
35961;SDS011;22044;48.298;10.008;2023-06-04T16:15:51;5.75;;;4.63;;
35961;SDS011;22044;48.298;10.008;2023-06-04T16:18:37;6.40;;;5.35;;
35961;SDS011;22044;48.298;10.008;2023-06-04T16:21:24;6.97;;;4.75;;
35961;SDS011;22044;48.298;10.008;2023-06-04T16:24:10;5.47;;;4.60;;
35961;SDS011;22044;48.298;10.008;2023-06-04T16:26:57;5.25;;;4.38;;
35961;SDS011;22044;48.298;10.008;2023-06-04T16:29:42;5.13;;;4.50;;